createdAt,value
2018-12-10T00:01:28.793Z,100549.64
2018-12-10T00:03:56.529Z,100557.41
2018-12-10T00:06:24.303Z,100556.23
2018-12-10T00:08:51.967Z,100560.56
2018-12-10T00:11:19.653Z,100569.83
2018-12-10T00:13:47.384Z,100577.30
2018-12-10T00:16:14.753Z,100581.66
2018-12-10T00:18:42.363Z,100588.45
2018-12-10T00:21:10.059Z,100589.03
2018-12-10T00:23:37.477Z,100592.97
2018-12-10T00:26:05.189Z,100590.84
2018-12-10T00:28:32.578Z,100596.96
2018-12-10T00:31:00.261Z,100601.80
2018-12-10T00:33:27.847Z,100590.22
2018-12-10T00:35:55.227Z,100587.61
2018-12-10T00:38:22.847Z,100589.28
2018-12-10T00:40:50.563Z,100592.92
2018-12-10T00:43:18.255Z,100598.63
2018-12-10T00:45:45.843Z,100594.48
2018-12-10T00:48:13.319Z,100589.59
2018-12-10T00:50:40.819Z,100609.38
2018-12-10T00:53:08.387Z,100614.69
2018-12-10T00:55:35.965Z,100627.37
2018-12-10T00:58:03.648Z,100621.34
2018-12-10T01:00:31.344Z,100620.72
2018-12-10T01:02:58.917Z,100622.88
2018-12-10T01:05:26.380Z,100623.16
2018-12-10T01:07:54.044Z,100625.86
2018-12-10T01:10:21.436Z,100619.98
2018-12-10T01:12:49.123Z,100623.89
2018-12-10T01:15:16.868Z,100638.36
2018-12-10T01:17:44.427Z,100650.95
2018-12-10T01:20:12.248Z,100654.61
2018-12-10T01:22:40.052Z,100670.00
2018-12-10T01:25:07.649Z,100658.92
2018-12-10T01:27:35.336Z,100673.41
2018-12-10T01:30:03.604Z,100681.84
2018-12-10T01:32:31.354Z,100691.59
2018-12-10T01:34:59.096Z,100702.89
2018-12-10T01:37:27.440Z,100700.50
2018-12-10T01:39:55.014Z,100704.14
2018-12-10T01:42:22.698Z,100701.72
2018-12-10T01:44:50.302Z,100697.13
2018-12-10T01:47:17.957Z,100700.64
2018-12-10T01:49:45.528Z,100705.13
2018-12-10T01:52:12.882Z,100706.48
2018-12-10T01:54:40.503Z,100708.97
2018-12-10T01:57:08.036Z,100719.81
2018-12-10T01:59:35.673Z,100697.98
2018-12-10T02:02:03.491Z,100726.35
2018-12-10T02:04:31.198Z,100722.46
2018-12-10T02:06:58.933Z,100721.38
2018-12-10T02:09:26.609Z,100722.28
2018-12-10T02:11:54.051Z,100710.08
2018-12-10T02:14:21.871Z,100720.53
2018-12-10T02:16:49.249Z,100718.63
2018-12-10T02:19:17.029Z,100716.45
2018-12-10T02:21:44.641Z,100721.53
2018-12-10T02:24:12.227Z,100732.52
2018-12-10T02:26:40.103Z,100725.57
2018-12-10T02:29:14.439Z,100735.09
2018-12-10T02:31:43.011Z,100744.33
2018-12-10T02:34:10.632Z,100742.20
2018-12-10T02:36:38.505Z,100747.88
2018-12-10T02:39:06.244Z,100756.38
2018-12-10T02:41:33.945Z,100760.75
2018-12-10T02:44:01.967Z,100775.43
2018-12-10T02:46:29.692Z,100789.70
2018-12-10T02:48:57.396Z,100803.83
2018-12-10T02:51:25.257Z,100809.22
2018-12-10T02:53:52.949Z,100823.31
2018-12-10T02:56:20.578Z,100818.12
2018-12-10T02:58:48.451Z,100823.25
2018-12-10T03:01:16.016Z,100821.56
2018-12-10T03:03:43.740Z,100817.86
2018-12-10T03:06:11.409Z,100814.02
2018-12-10T03:08:39.178Z,100819.32
2018-12-10T03:11:06.785Z,100808.81
2018-12-10T03:13:36.447Z,100812.97
2018-12-10T03:16:04.295Z,100800.63
2018-12-10T03:18:31.966Z,100805.02
2018-12-10T03:20:59.355Z,100803.53
2018-12-10T03:23:27.495Z,100805.83
2018-12-10T03:25:54.819Z,100805.00
2018-12-10T03:28:22.513Z,100806.33
2018-12-10T03:30:50.054Z,100806.02
2018-12-10T03:33:17.716Z,100809.78
2018-12-10T03:35:45.133Z,100818.14
2018-12-10T03:38:13.017Z,100822.28
2018-12-10T03:40:40.728Z,100822.20
2018-12-10T03:43:08.402Z,100828.27
2018-12-10T03:45:35.733Z,100823.74
2018-12-10T03:48:03.272Z,100830.41
2018-12-10T03:50:30.624Z,100827.30
2018-12-10T03:52:58.344Z,100829.06
2018-12-10T03:55:25.652Z,100826.22
2018-12-10T03:57:53.151Z,100826.75
2018-12-10T04:00:20.804Z,100830.88
2018-12-10T04:02:48.209Z,100836.02
2018-12-10T04:05:16.031Z,100839.63
2018-12-10T04:07:43.376Z,100837.39
2018-12-10T04:10:11.041Z,100832.85
2018-12-10T04:12:38.755Z,100834.93
2018-12-10T04:15:06.605Z,100845.27
2018-12-10T04:17:34.269Z,100844.08
2018-12-10T04:20:02.299Z,100850.55
2018-12-10T04:22:29.964Z,100850.23
2018-12-10T04:24:57.532Z,100853.51
2018-12-10T04:27:25.132Z,100864.22
2018-12-10T04:29:52.752Z,100867.92
2018-12-10T04:32:20.417Z,100870.62
2018-12-10T04:34:48.132Z,100862.00
2018-12-10T04:37:15.652Z,100862.67
2018-12-10T04:39:43.524Z,100857.45
2018-12-10T04:42:11.143Z,100863.91
2018-12-10T04:44:38.460Z,100864.61
2018-12-10T04:47:06.277Z,100857.67
2018-12-10T04:49:33.858Z,100863.78
2018-12-10T04:52:01.590Z,100883.44
2018-12-10T04:54:29.356Z,100874.02
2018-12-10T04:56:56.996Z,100876.86
2018-12-10T04:59:24.644Z,100867.77
2018-12-10T05:01:52.360Z,100888.31
2018-12-10T05:04:20.185Z,100892.22
2018-12-10T05:06:47.880Z,100902.27
2018-12-10T05:09:15.672Z,100905.70
2018-12-10T05:11:43.372Z,100904.77
2018-12-10T05:14:11.020Z,100902.47
2018-12-10T05:16:39.050Z,100911.95
2018-12-10T05:19:06.536Z,100909.39
2018-12-10T05:21:34.348Z,100915.17
2018-12-10T05:24:01.974Z,100920.05
2018-12-10T05:26:29.615Z,100921.67
2018-12-10T05:28:57.421Z,100926.91
2018-12-10T05:31:24.773Z,100925.00
2018-12-10T05:33:52.625Z,100923.97
2018-12-10T05:36:20.071Z,100928.34
2018-12-10T05:38:47.512Z,100921.40
2018-12-10T05:41:15.397Z,100933.01
2018-12-10T05:43:42.952Z,100940.09
2018-12-10T05:46:10.487Z,100937.12
2018-12-10T05:48:38.089Z,100942.49
2018-12-10T05:51:05.493Z,100945.33
2018-12-10T05:53:33.059Z,100940.64
2018-12-10T05:56:00.853Z,100950.88
2018-12-10T05:58:28.655Z,100955.22
2018-12-10T06:00:56.265Z,100963.61
2018-12-10T06:03:23.985Z,100973.60
2018-12-10T06:05:51.417Z,100969.62
2018-12-10T06:08:19.201Z,100976.28
2018-12-10T06:10:46.816Z,100972.95
2018-12-10T06:13:14.243Z,100981.67
2018-12-10T06:15:41.756Z,100984.83
2018-12-10T06:18:09.199Z,100984.64
2018-12-10T06:20:36.736Z,100985.52
2018-12-10T06:23:04.498Z,100982.97
2018-12-10T06:25:32.138Z,100990.30
2018-12-10T06:28:00.001Z,100984.55
2018-12-10T06:30:27.809Z,100985.94
2018-12-10T06:32:55.670Z,100989.30
2018-12-10T06:35:23.628Z,100988.69
2018-12-10T06:37:51.372Z,100992.69
2018-12-10T06:40:18.982Z,100992.00
2018-12-10T06:42:46.885Z,100984.60
2018-12-10T06:45:14.502Z,100991.53
2018-12-10T06:47:42.166Z,100988.13
2018-12-10T06:50:09.924Z,101000.58
2018-12-10T06:52:37.641Z,101003.89
2018-12-10T06:55:06.142Z,101008.81
2018-12-10T06:57:33.694Z,101007.89
2018-12-10T07:00:01.255Z,101002.91
2018-12-10T07:02:29.157Z,101003.45
2018-12-10T07:04:56.845Z,101008.30
2018-12-10T07:07:24.470Z,101010.60
2018-12-10T07:09:56.283Z,101016.42
2018-12-10T07:12:23.922Z,101027.81
2018-12-10T07:14:51.423Z,101030.30
2018-12-10T07:17:19.319Z,101038.28
2018-12-10T07:19:47.063Z,101034.05
2018-12-10T07:22:14.764Z,101024.65
2018-12-10T07:24:42.485Z,101036.13
2018-12-10T07:27:10.020Z,101036.59
2018-12-10T07:29:37.675Z,101035.08
2018-12-10T07:32:05.273Z,101045.06
2018-12-10T07:34:32.959Z,101054.22
2018-12-10T07:37:00.751Z,101056.76
2018-12-10T07:39:28.438Z,101064.92
2018-12-10T07:41:55.801Z,101052.53
2018-12-10T07:44:23.375Z,101063.36
2018-12-10T07:46:50.811Z,101056.41
2018-12-10T07:49:18.414Z,101062.49
2018-12-10T07:51:46.103Z,101063.30
2018-12-10T07:54:13.999Z,101061.45
2018-12-10T07:56:41.628Z,101065.37
2018-12-10T07:59:09.145Z,101073.29
2018-12-10T08:01:39.769Z,101083.58
2018-12-10T08:04:07.437Z,101079.28
2018-12-10T08:06:35.100Z,101079.58
2018-12-10T08:09:04.740Z,101082.75
2018-12-10T08:11:32.474Z,101086.50
2018-12-10T08:14:00.064Z,101086.27
2018-12-10T08:16:27.812Z,101094.12
2018-12-10T08:18:55.300Z,101087.78
2018-12-10T08:21:23.032Z,101087.09
2018-12-10T08:23:50.386Z,101107.78
2018-12-10T08:26:17.874Z,101107.39
2018-12-10T08:28:45.280Z,101111.14
2018-12-10T08:31:12.896Z,101105.27
2018-12-10T08:33:41.352Z,101114.27
2018-12-10T08:36:09.062Z,101110.09
2018-12-10T08:38:36.816Z,101116.24
2018-12-10T08:41:04.730Z,101110.12
2018-12-10T08:43:32.404Z,101106.95
2018-12-10T08:45:59.787Z,101122.30
2018-12-10T08:48:27.606Z,101113.99
2018-12-10T08:50:54.932Z,101115.94
2018-12-10T08:53:22.516Z,101121.03
2018-12-10T08:55:50.087Z,101128.90
2018-12-10T08:58:17.703Z,101118.03
2018-12-10T09:00:45.499Z,101137.55
2018-12-10T09:03:13.084Z,101123.95
2018-12-10T09:05:40.846Z,101140.70
2018-12-10T09:08:08.556Z,101133.72
2018-12-10T09:10:35.969Z,101141.91
2018-12-10T09:13:03.799Z,101156.80
2018-12-10T09:15:31.300Z,101150.61
2018-12-10T09:17:59.062Z,101152.97
2018-12-10T09:20:26.527Z,101149.67
2018-12-10T09:22:54.216Z,101158.77
2018-12-10T09:25:24.667Z,101162.14
2018-12-10T09:27:51.504Z,101162.59
2018-12-10T09:30:19.068Z,101162.27
2018-12-10T09:32:46.758Z,101168.75
2018-12-10T09:35:14.328Z,101166.36
2018-12-10T09:37:42.012Z,101158.91
2018-12-10T09:40:10.298Z,101157.50
2018-12-10T09:42:37.889Z,101160.05
2018-12-10T09:45:06.633Z,101169.90
2018-12-10T09:47:34.356Z,101172.69
2018-12-10T09:50:02.032Z,101167.77
2018-12-10T09:52:29.888Z,101173.27
2018-12-10T09:54:57.419Z,101174.78
2018-12-10T09:57:24.898Z,101170.11
2018-12-10T09:59:52.486Z,101165.14
2018-12-10T10:02:20.083Z,101162.79
2018-12-10T10:04:47.820Z,101173.31
2018-12-10T10:07:15.428Z,101174.34
2018-12-10T10:09:43.086Z,101161.50
2018-12-10T10:12:10.987Z,101160.75
2018-12-10T10:14:38.877Z,101163.38
2018-12-10T10:17:06.670Z,101159.53
2018-12-10T10:19:34.338Z,101163.19
2018-12-10T10:22:02.051Z,101155.02
2018-12-10T10:24:29.940Z,101162.98
2018-12-10T10:26:57.643Z,101157.62
2018-12-10T10:29:25.330Z,101167.41
2018-12-10T10:31:52.954Z,101175.38
2018-12-10T10:34:20.671Z,101170.61
2018-12-10T10:36:48.303Z,101163.91
2018-12-10T10:39:15.702Z,101171.14
2018-12-10T10:41:43.295Z,101163.41
2018-12-10T10:44:11.154Z,101155.22
2018-12-10T10:46:39.091Z,101154.27
2018-12-10T10:49:06.676Z,101144.05
2018-12-10T10:51:35.115Z,101150.98
2018-12-10T10:54:03.073Z,101155.36
2018-12-10T10:56:30.767Z,101155.92
2018-12-10T10:58:58.539Z,101157.09
2018-12-10T11:01:31.949Z,101146.41
2018-12-10T11:03:59.714Z,101149.23
2018-12-10T11:06:27.303Z,101148.13
2018-12-10T11:08:54.948Z,101149.28
2018-12-10T11:11:22.601Z,101139.14
2018-12-10T11:13:50.336Z,101144.03
2018-12-10T11:16:17.892Z,101138.33
2018-12-10T11:18:45.672Z,101142.17
2018-12-10T11:21:13.250Z,101143.20
2018-12-10T11:23:40.870Z,101129.38
2018-12-10T11:26:08.416Z,101129.58
2018-12-10T11:28:36.116Z,101126.05
2018-12-10T11:31:03.676Z,101128.27
2018-12-10T11:33:31.400Z,101140.99
2018-12-10T11:35:58.867Z,101147.30
2018-12-10T11:38:26.471Z,101150.73
2018-12-10T11:40:54.191Z,101148.02
2018-12-10T11:43:22.025Z,101145.05
2018-12-10T11:45:49.641Z,101154.34
2018-12-10T11:48:17.511Z,101153.98
2018-12-10T11:50:44.849Z,101149.28
2018-12-10T11:53:12.657Z,101144.45
2018-12-10T11:55:40.193Z,101141.82
2018-12-10T11:58:07.773Z,101144.52
2018-12-10T12:00:35.553Z,101139.19
2018-12-10T12:03:03.273Z,101139.92
2018-12-10T12:05:30.655Z,101134.61
2018-12-10T12:07:58.135Z,101137.47
2018-12-10T12:10:25.733Z,101141.42
2018-12-10T12:12:53.055Z,101136.61
2018-12-10T12:15:20.724Z,101142.16
2018-12-10T12:17:49.045Z,101141.59
2018-12-10T12:20:16.884Z,101135.30
2018-12-10T12:22:44.518Z,101147.87
2018-12-10T12:25:12.285Z,101141.78
2018-12-10T12:27:39.929Z,101139.01
2018-12-10T12:30:08.434Z,101135.47
2018-12-10T12:32:36.046Z,101126.76
2018-12-10T12:35:03.767Z,101124.55
2018-12-10T12:37:31.559Z,101122.38
2018-12-10T12:39:59.468Z,101116.86
2018-12-10T12:42:27.153Z,101109.50
2018-12-10T12:44:54.768Z,101120.46
2018-12-10T12:47:22.482Z,101105.94
2018-12-10T12:49:50.109Z,101112.87
2018-12-10T12:52:17.722Z,101118.13
2018-12-10T12:54:45.125Z,101126.45
2018-12-10T12:57:12.797Z,101123.98
2018-12-10T12:59:40.385Z,101128.17
2018-12-10T13:02:08.081Z,101118.18
2018-12-10T13:04:35.785Z,101121.13
2018-12-10T13:07:03.486Z,101120.42
2018-12-10T13:09:31.337Z,101112.66
2018-12-10T13:11:58.942Z,101107.49
2018-12-10T13:14:26.633Z,101110.90
2018-12-10T13:16:54.242Z,101099.17
2018-12-10T13:19:21.919Z,101100.32
2018-12-10T13:21:49.581Z,101105.00
2018-12-10T13:24:17.201Z,101101.22
2018-12-10T13:26:44.875Z,101095.31
2018-12-10T13:29:12.913Z,101090.92
2018-12-10T13:31:40.402Z,101079.84
2018-12-10T13:34:07.993Z,101084.56
2018-12-10T13:36:35.561Z,101084.36
2018-12-10T13:39:05.378Z,101079.96
2018-12-10T13:41:32.781Z,101085.38
2018-12-10T13:44:00.467Z,101086.24
2018-12-10T13:46:28.106Z,101084.36
2018-12-10T13:48:55.873Z,101075.24
2018-12-10T13:51:23.490Z,101081.44
2018-12-10T13:53:51.089Z,101085.64
2018-12-10T13:56:18.915Z,101084.37
2018-12-10T13:58:46.604Z,101080.63
2018-12-10T14:01:14.344Z,101078.36
2018-12-10T14:03:41.928Z,101072.60
2018-12-10T14:06:09.608Z,101068.16
2018-12-10T14:08:37.319Z,101076.03
2018-12-10T14:11:04.980Z,101078.66
2018-12-10T14:13:32.568Z,101075.82
2018-12-10T14:16:00.315Z,101072.62
2018-12-10T14:18:28.582Z,101075.06
2018-12-10T14:20:56.085Z,101078.31
2018-12-10T14:23:23.460Z,101076.70
2018-12-10T14:25:51.206Z,101076.12
2018-12-10T14:28:18.885Z,101061.30
2018-12-10T14:30:46.675Z,101076.45
2018-12-10T14:33:14.492Z,101074.92
2018-12-10T14:35:42.005Z,101074.89
2018-12-10T14:38:09.660Z,101069.73
2018-12-10T14:40:38.461Z,101059.66
2018-12-10T14:43:06.328Z,101062.36
2018-12-10T14:45:33.786Z,101061.98
2018-12-10T14:48:01.555Z,101058.27
2018-12-10T14:50:30.455Z,101058.05
2018-12-10T14:52:58.316Z,101064.16
2018-12-10T14:55:26.068Z,101066.48
2018-12-10T14:57:53.552Z,101060.48
2018-12-10T15:00:20.932Z,101066.93
2018-12-10T15:02:48.589Z,101061.39
2018-12-10T15:05:16.053Z,101082.46
2018-12-10T15:07:43.757Z,101085.61
2018-12-10T15:10:11.276Z,101083.17
2018-12-10T15:12:38.984Z,101089.50
2018-12-10T15:15:09.749Z,101089.00
2018-12-10T15:17:37.430Z,101086.09
2018-12-10T15:20:11.742Z,101091.84
2018-12-10T15:22:39.282Z,101085.28
2018-12-10T15:25:07.892Z,101100.78
2018-12-10T15:27:36.316Z,101104.48
2018-12-10T15:30:06.516Z,101102.64
2018-12-10T15:32:34.120Z,101107.27
2018-12-10T15:35:01.796Z,101105.49
2018-12-10T15:37:29.457Z,101109.94
2018-12-10T15:39:57.226Z,101109.88
2018-12-10T15:42:24.731Z,101105.06
2018-12-10T15:44:52.331Z,101111.66
2018-12-10T15:47:20.041Z,101123.77
2018-12-10T15:49:47.660Z,101121.53
2018-12-10T15:52:15.108Z,101128.13
2018-12-10T15:54:42.646Z,101127.53
2018-12-10T15:57:10.037Z,101138.58
2018-12-10T15:59:37.795Z,101136.44
2018-12-10T16:02:05.703Z,101143.00
2018-12-10T16:04:34.134Z,101139.45
2018-12-10T16:07:02.022Z,101126.73
2018-12-10T16:09:29.661Z,101116.51
2018-12-10T16:11:57.642Z,101112.77
2018-12-10T16:14:25.353Z,101107.41
2018-12-10T16:16:52.974Z,101111.44
2018-12-10T16:19:20.736Z,101110.98
2018-12-10T16:21:48.283Z,101103.20
2018-12-10T16:24:16.104Z,101109.13
2018-12-10T16:26:43.926Z,101108.92
2018-12-10T16:29:11.657Z,101117.97
2018-12-10T16:31:39.196Z,101114.20
2018-12-10T16:34:06.624Z,101122.26
2018-12-10T16:36:34.100Z,101129.94
2018-12-10T16:39:01.564Z,101123.73
2018-12-10T16:41:30.204Z,101122.91
2018-12-10T16:43:57.896Z,101112.91
2018-12-10T16:46:25.309Z,101118.50
2018-12-10T16:48:52.933Z,101107.79
2018-12-10T16:51:20.532Z,101111.00
2018-12-10T16:53:48.400Z,101112.98
2018-12-10T16:56:16.055Z,101110.27
2018-12-10T16:58:43.669Z,101105.91
2018-12-10T17:01:11.345Z,101110.68
2018-12-10T17:03:38.954Z,101130.38
2018-12-10T17:06:06.749Z,101132.60
2018-12-10T17:08:34.344Z,101130.88
2018-12-10T17:11:02.271Z,101140.31
2018-12-10T17:13:30.311Z,101153.84
2018-12-10T17:15:57.702Z,101154.82
2018-12-10T17:18:25.599Z,101143.08
2018-12-10T17:20:53.069Z,101133.41
2018-12-10T17:23:20.739Z,101133.17
2018-12-10T17:25:48.321Z,101128.45
2018-12-10T17:28:16.121Z,101141.77
2018-12-10T17:30:43.987Z,101150.58
2018-12-10T17:33:11.697Z,101153.31
2018-12-10T17:35:39.163Z,101163.50
2018-12-10T17:38:06.814Z,101163.64
2018-12-10T17:40:34.575Z,101171.66
2018-12-10T17:43:02.247Z,101162.28
2018-12-10T17:45:29.621Z,101158.31
2018-12-10T17:47:57.543Z,101159.83
2018-12-10T17:50:25.177Z,101165.37
2018-12-10T17:52:52.816Z,101169.67
2018-12-10T17:55:20.472Z,101178.48
2018-12-10T17:57:48.289Z,101181.43
2018-12-10T18:00:16.039Z,101180.36
2018-12-10T18:02:43.599Z,101179.26
2018-12-10T18:05:11.127Z,101185.87
2018-12-10T18:07:38.545Z,101186.15
2018-12-10T18:10:06.831Z,101180.66
2018-12-10T18:12:34.463Z,101182.80
2018-12-10T18:15:02.269Z,101184.41
2018-12-10T18:17:32.989Z,101185.67
2018-12-10T18:20:00.548Z,101190.80
2018-12-10T18:22:28.067Z,101187.72
2018-12-10T18:24:55.820Z,101180.16
2018-12-10T18:27:23.415Z,101185.87
2018-12-10T18:29:51.178Z,101167.42
2018-12-10T18:32:18.876Z,101171.16
2018-12-10T18:34:46.532Z,101180.79
2018-12-10T18:37:14.090Z,101172.02
2018-12-10T18:39:42.101Z,101190.64
2018-12-10T18:42:09.779Z,101194.11
2018-12-10T18:44:37.156Z,101191.05
2018-12-10T18:47:04.688Z,101196.19
2018-12-10T18:49:32.134Z,101199.69
2018-12-10T18:51:59.834Z,101200.03
2018-12-10T18:54:27.507Z,101218.32
2018-12-10T18:56:55.038Z,101192.55
2018-12-10T18:59:22.682Z,101196.89
2018-12-10T19:01:50.531Z,101197.78
2018-12-10T19:04:18.386Z,101200.88
2018-12-10T19:06:46.041Z,101195.30
2018-12-10T19:09:14.286Z,101199.25
2018-12-10T19:11:42.052Z,101196.67
2018-12-10T19:14:09.728Z,101203.70
2018-12-10T19:16:37.982Z,101193.41
2018-12-10T19:19:05.730Z,101201.09
2018-12-10T19:21:33.549Z,101199.98
2018-12-10T19:24:01.222Z,101206.17
2018-12-10T19:26:28.868Z,101212.08
2018-12-10T19:28:56.474Z,101215.72
2018-12-10T19:31:24.103Z,101220.20
2018-12-10T19:33:52.177Z,101219.15
2018-12-10T19:36:19.565Z,101226.85
2018-12-10T19:38:47.358Z,101200.62
2018-12-10T19:41:14.998Z,101206.13
2018-12-10T19:43:42.631Z,101210.27
2018-12-10T19:46:10.417Z,101206.37
2018-12-10T19:48:38.041Z,101210.41
2018-12-10T19:51:05.776Z,101205.97
2018-12-10T19:53:33.468Z,101209.44
2018-12-10T19:56:01.057Z,101219.52
2018-12-10T19:58:28.663Z,101214.45
2018-12-10T20:00:56.326Z,101197.55
2018-12-10T20:03:24.018Z,101210.87
2018-12-10T20:05:57.712Z,101209.06
2018-12-10T20:08:25.381Z,101202.34
2018-12-10T20:10:53.360Z,101210.89
2018-12-10T20:13:20.927Z,101202.63
2018-12-10T20:15:48.671Z,101209.44
2018-12-10T20:18:16.248Z,101221.06
2018-12-10T20:20:43.745Z,101222.60
2018-12-10T20:23:11.119Z,101216.93
2018-12-10T20:25:38.729Z,101218.29
2018-12-10T20:28:06.533Z,101218.95
2018-12-10T20:30:34.239Z,101225.41
2018-12-10T20:33:01.981Z,101213.20
2018-12-10T20:35:29.490Z,101203.85
2018-12-10T20:37:57.196Z,101199.94
2018-12-10T20:40:24.812Z,101205.95
2018-12-10T20:42:52.556Z,101207.39
2018-12-10T20:45:20.272Z,101209.50
2018-12-10T20:47:48.219Z,101207.02
2018-12-10T20:50:16.130Z,101213.80
2018-12-10T20:52:43.843Z,101227.16
2018-12-10T20:55:12.972Z,101217.17
2018-12-10T20:57:41.623Z,101219.33
2018-12-10T21:00:09.765Z,101220.45
2018-12-10T21:02:37.454Z,101219.52
2018-12-10T21:05:05.100Z,101214.03
2018-12-10T21:07:32.803Z,101224.39
2018-12-10T21:10:00.493Z,101220.27
2018-12-10T21:12:29.728Z,101219.52
2018-12-10T21:15:00.453Z,101223.77
2018-12-10T21:17:26.905Z,101225.62
2018-12-10T21:19:54.575Z,101227.35
2018-12-10T21:22:26.215Z,101225.98
2018-12-10T21:24:57.180Z,101227.00
2018-12-10T21:27:24.804Z,101230.44
2018-12-10T21:29:53.624Z,101232.47
2018-12-10T21:32:21.512Z,101224.24
2018-12-10T21:34:48.985Z,101224.42
2018-12-10T21:37:16.740Z,101228.44
2018-12-10T21:39:44.354Z,101221.86
2018-12-10T21:42:13.043Z,101230.98
2018-12-10T21:44:40.698Z,101229.14
2018-12-10T21:47:08.474Z,101213.63
2018-12-10T21:49:36.072Z,101218.11
2018-12-10T21:52:03.531Z,101222.94
2018-12-10T21:54:31.157Z,101211.59
2018-12-10T21:56:58.847Z,101215.57
2018-12-10T21:59:26.589Z,101218.50
2018-12-10T22:01:54.484Z,101217.30
2018-12-10T22:04:22.084Z,101207.79
2018-12-10T22:06:49.959Z,101218.47
2018-12-10T22:09:17.712Z,101212.09
2018-12-10T22:11:45.447Z,101231.00
2018-12-10T22:14:13.153Z,101226.31
2018-12-10T22:16:41.213Z,101233.13
2018-12-10T22:19:09.287Z,101228.66
2018-12-10T22:21:36.919Z,101238.41
2018-12-10T22:24:04.635Z,101219.83
2018-12-10T22:26:32.458Z,101234.22
2018-12-10T22:29:00.076Z,101234.74
2018-12-10T22:31:27.888Z,101229.05
2018-12-10T22:33:55.641Z,101244.11
2018-12-10T22:36:23.300Z,101245.05
2018-12-10T22:38:50.837Z,101241.02
2018-12-10T22:41:18.437Z,101227.45
2018-12-10T22:43:46.005Z,101233.77
2018-12-10T22:46:13.625Z,101238.77
2018-12-10T22:48:41.413Z,101238.05
2018-12-10T22:51:09.035Z,101249.94
2018-12-10T22:53:36.623Z,101247.59
2018-12-10T22:56:04.277Z,101244.82
2018-12-10T22:58:31.976Z,101245.65
2018-12-10T23:00:59.847Z,101222.89
2018-12-10T23:03:27.321Z,101238.20
2018-12-10T23:05:54.708Z,101240.14
2018-12-10T23:08:22.327Z,101243.73
2018-12-10T23:10:50.020Z,101235.41
2018-12-10T23:13:17.605Z,101239.94
2018-12-10T23:15:44.987Z,101246.90
2018-12-10T23:18:12.569Z,101242.66
2018-12-10T23:20:39.921Z,101244.88
2018-12-10T23:23:07.634Z,101239.66
2018-12-10T23:25:35.259Z,101243.64
2018-12-10T23:28:03.104Z,101239.92
2018-12-10T23:30:30.854Z,101238.59
2018-12-10T23:32:59.330Z,101243.72
2018-12-10T23:35:27.104Z,101235.28
2018-12-10T23:37:54.704Z,101241.81
2018-12-10T23:40:22.516Z,101245.64
2018-12-10T23:42:55.762Z,101249.12
2018-12-10T23:45:23.636Z,101247.59
2018-12-10T23:47:51.223Z,101249.19
2018-12-10T23:50:18.845Z,101252.91
2018-12-10T23:52:46.436Z,101252.88
2018-12-10T23:55:13.931Z,101244.88
2018-12-10T23:57:41.477Z,101252.49
